createdAt,value
2023-03-06T00:01:03.651Z,0.77
2023-03-06T00:03:56.236Z,0.78
2023-03-06T00:06:47.319Z,0.80
2023-03-06T00:09:39.616Z,0.79
2023-03-06T00:12:24.573Z,0.79
2023-03-06T00:15:15.521Z,0.77
2023-03-06T00:18:04.166Z,0.76
2023-03-06T00:20:56.434Z,0.77
2023-03-06T00:23:42.177Z,0.81
2023-03-06T00:26:17.369Z,0.82
2023-03-06T00:29:00.832Z,0.83
2023-03-06T00:31:51.588Z,0.83
2023-03-06T00:34:37.932Z,0.82
2023-03-06T00:37:15.115Z,0.82
2023-03-06T00:40:11.294Z,0.83
2023-03-06T00:43:03.603Z,0.84
2023-03-06T00:45:50.100Z,0.83
2023-03-06T00:48:42.257Z,0.83
2023-03-06T00:51:34.587Z,0.84
2023-03-06T00:54:19.481Z,0.86
2023-03-06T00:57:03.285Z,0.85
2023-03-06T00:59:54.040Z,0.82
2023-03-06T01:02:37.044Z,0.77
2023-03-06T01:05:27.827Z,0.76
2023-03-06T01:08:20.192Z,0.76
2023-03-06T01:11:12.578Z,0.72
2023-03-06T01:13:53.388Z,0.71
2023-03-06T01:16:36.014Z,0.72
2023-03-06T01:19:28.365Z,0.73
2023-03-06T01:22:05.412Z,0.72
2023-03-06T01:24:57.647Z,0.66
2023-03-06T01:27:50.013Z,0.66
2023-03-06T01:30:35.917Z,0.68
2023-03-06T01:33:28.220Z,0.69
2023-03-06T01:36:19.095Z,0.72
2023-03-06T01:39:05.107Z,0.74
2023-03-06T01:41:57.355Z,0.77
2023-03-06T01:45:04.322Z,0.72
2023-03-06T01:47:50.029Z,0.67
2023-03-06T01:50:42.651Z,0.64
2023-03-06T01:53:35.208Z,0.57
2023-03-06T01:56:28.011Z,0.57
2023-03-06T01:59:04.416Z,0.55
2023-03-06T02:01:42.707Z,0.55
2023-03-06T02:04:36.245Z,0.54
2023-03-06T02:07:23.842Z,0.53
2023-03-06T02:10:11.271Z,0.48
2023-03-06T02:13:03.867Z,0.46
2023-03-06T02:15:50.161Z,0.44
2023-03-06T02:18:31.492Z,0.43
2023-03-06T02:21:27.149Z,0.43
2023-03-06T02:24:15.778Z,0.39
2023-03-06T02:27:04.459Z,0.35
2023-03-06T02:29:41.516Z,0.33
2023-03-06T02:32:34.088Z,0.29
2023-03-06T02:35:26.215Z,0.21
2023-03-06T02:38:17.201Z,0.19
2023-03-06T02:41:10.777Z,0.16
2023-03-06T02:44:03.242Z,0.15
2023-03-06T02:46:55.478Z,0.05
2023-03-06T02:49:47.814Z,-0.03
2023-03-06T02:52:33.718Z,-0.09
2023-03-06T02:55:22.570Z,-0.10
2023-03-06T02:58:08.254Z,-0.12
2023-03-06T03:00:45.536Z,-0.16
2023-03-06T03:03:36.713Z,-0.17
2023-03-06T03:06:29.073Z,-0.14
2023-03-06T03:09:21.612Z,-0.10
2023-03-06T03:12:14.471Z,-0.11
2023-03-06T03:14:56.944Z,-0.12
2023-03-06T03:17:29.674Z,-0.14
2023-03-06T03:20:17.744Z,-0.15
2023-03-06T03:23:10.052Z,-0.19
2023-03-06T03:26:10.927Z,-0.21
2023-03-06T03:29:04.747Z,-0.28
2023-03-06T03:31:51.528Z,-0.33
2023-03-06T03:34:42.255Z,-0.27
2023-03-06T03:37:34.778Z,-0.25
2023-03-06T03:40:25.404Z,-0.21
2023-03-06T03:43:17.655Z,-0.18
2023-03-06T03:46:03.763Z,-0.13
2023-03-06T03:48:47.085Z,-0.09
2023-03-06T03:51:39.509Z,-0.06
2023-03-06T03:54:30.303Z,-0.03
2023-03-06T03:57:22.205Z,-0.02
2023-03-06T04:00:17.177Z,-0.05
2023-03-06T04:03:05.817Z,-0.10
2023-03-06T04:05:58.313Z,-0.13
2023-03-06T04:08:49.133Z,-0.18
2023-03-06T04:11:40.172Z,-0.19
2023-03-06T04:14:25.167Z,-0.21
2023-03-06T04:17:17.415Z,-0.19
2023-03-06T04:19:54.912Z,-0.19
2023-03-06T04:22:41.261Z,-0.22
2023-03-06T04:25:33.200Z,-0.22
2023-03-06T04:28:09.734Z,-0.20
2023-03-06T04:31:02.183Z,-0.17
2023-03-06T04:33:53.230Z,-0.18
2023-03-06T04:36:36.775Z,-0.16
2023-03-06T04:39:27.887Z,-0.14
2023-03-06T04:42:04.828Z,-0.14
2023-03-06T04:44:57.286Z,-0.16
2023-03-06T04:47:40.795Z,-0.17
2023-03-06T04:50:32.753Z,-0.18
2023-03-06T04:53:21.400Z,-0.16
2023-03-06T04:55:56.223Z,-0.16
2023-03-06T04:58:42.549Z,-0.16
2023-03-06T05:01:34.741Z,-0.16
2023-03-06T05:04:18.024Z,-0.14
2023-03-06T05:07:10.909Z,-0.11
2023-03-06T05:10:03.260Z,-0.07
2023-03-06T05:12:55.728Z,-0.02
2023-03-06T05:15:46.543Z,0.00
2023-03-06T05:18:39.135Z,-0.02
2023-03-06T05:21:29.858Z,0.00
2023-03-06T05:24:22.236Z,0.01
2023-03-06T05:27:14.595Z,0.01
2023-03-06T05:30:12.584Z,0.02
2023-03-06T05:33:04.889Z,-0.04
2023-03-06T05:35:50.944Z,-0.05
2023-03-06T05:38:34.638Z,-0.08
2023-03-06T05:41:27.007Z,-0.11
2023-03-06T05:44:19.244Z,-0.13
2023-03-06T05:47:12.138Z,-0.14
2023-03-06T05:50:02.463Z,-0.12
2023-03-06T05:52:40.808Z,-0.10
2023-03-06T05:55:32.228Z,-0.08
2023-03-06T05:58:29.266Z,0.01
2023-03-06T06:01:15.513Z,0.09
2023-03-06T06:03:52.824Z,0.16
2023-03-06T06:06:29.714Z,0.24
2023-03-06T06:09:22.434Z,0.32
2023-03-06T06:12:15.601Z,0.41
2023-03-06T06:14:51.387Z,0.47
2023-03-06T06:17:26.821Z,0.52
2023-03-06T06:20:12.569Z,0.58
2023-03-06T06:22:47.956Z,0.65
2023-03-06T06:25:40.415Z,0.70
2023-03-06T06:28:25.277Z,0.72
2023-03-06T06:31:14.744Z,0.77
2023-03-06T06:34:08.481Z,0.81
2023-03-06T06:37:00.880Z,0.86
2023-03-06T06:39:53.429Z,0.88
2023-03-06T06:42:47.271Z,0.91
2023-03-06T06:45:39.782Z,0.94
2023-03-06T06:48:19.440Z,0.98
2023-03-06T06:51:12.112Z,1.04
2023-03-06T06:54:04.782Z,1.09
2023-03-06T06:56:57.199Z,1.13
2023-03-06T06:59:48.131Z,1.20
2023-03-06T07:02:40.436Z,1.26
2023-03-06T07:05:32.959Z,1.41
2023-03-06T07:08:17.667Z,1.54
2023-03-06T07:11:12.487Z,1.70
2023-03-06T07:13:57.103Z,1.85
2023-03-06T07:16:49.544Z,2.04
2023-03-06T07:19:41.839Z,2.20
2023-03-06T07:22:25.488Z,2.38
2023-03-06T07:25:17.995Z,2.54
2023-03-06T07:28:08.756Z,2.69
2023-03-06T07:31:01.229Z,2.83
2023-03-06T07:33:53.362Z,3.01
2023-03-06T07:36:40.519Z,3.16
2023-03-06T07:39:32.911Z,3.30
2023-03-06T07:42:11.387Z,3.41
2023-03-06T07:44:50.920Z,3.46
2023-03-06T07:47:36.162Z,3.51
2023-03-06T07:50:28.738Z,3.62
2023-03-06T07:53:12.106Z,3.71
2023-03-06T07:55:57.764Z,3.76
2023-03-06T07:58:49.170Z,3.87
2023-03-06T08:01:42.034Z,3.97
2023-03-06T08:04:19.865Z,4.07
2023-03-06T08:07:10.596Z,4.18
2023-03-06T08:10:03.279Z,4.19
2023-03-06T08:12:37.765Z,4.25
2023-03-06T08:15:22.510Z,4.29
2023-03-06T08:18:14.906Z,4.35
2023-03-06T08:20:52.265Z,4.48
2023-03-06T08:23:45.102Z,4.66
2023-03-06T08:26:21.431Z,4.79
2023-03-06T08:29:04.257Z,4.97
2023-03-06T08:31:56.739Z,5.16
2023-03-06T08:34:47.533Z,5.33
2023-03-06T08:37:38.375Z,5.46
2023-03-06T08:40:31.179Z,5.63
2023-03-06T08:43:23.524Z,5.71
2023-03-06T08:46:16.006Z,5.81
2023-03-06T08:48:59.611Z,5.97
2023-03-06T08:51:53.074Z,6.11
2023-03-06T08:54:37.524Z,6.29
2023-03-06T08:57:20.771Z,6.53
2023-03-06T09:00:15.544Z,6.80
2023-03-06T09:03:08.139Z,7.03
2023-03-06T09:06:03.661Z,7.25
2023-03-06T09:08:55.420Z,7.46
2023-03-06T09:11:48.352Z,7.63
2023-03-06T09:14:23.673Z,7.77
2023-03-06T09:17:14.900Z,7.93
2023-03-06T09:20:10.604Z,8.07
2023-03-06T09:22:46.033Z,8.19
2023-03-06T09:25:38.652Z,8.35
2023-03-06T09:28:22.163Z,8.55
2023-03-06T09:30:59.466Z,8.71
2023-03-06T09:33:52.165Z,8.84
2023-03-06T09:36:49.311Z,8.91
2023-03-06T09:39:31.397Z,8.96
2023-03-06T09:42:03.696Z,9.11
2023-03-06T09:44:52.762Z,9.34
2023-03-06T09:47:50.438Z,9.55
2023-03-06T09:50:42.848Z,9.76
2023-03-06T09:53:50.827Z,9.97
2023-03-06T09:56:31.147Z,10.10
2023-03-06T09:59:18.726Z,10.07
2023-03-06T10:01:55.458Z,10.05
2023-03-06T10:04:41.626Z,10.12
2023-03-06T10:07:24.401Z,10.16
2023-03-06T10:10:01.010Z,10.16
2023-03-06T10:12:38.806Z,10.17
2023-03-06T10:15:36.180Z,10.20
2023-03-06T10:18:08.946Z,10.31
2023-03-06T10:20:54.674Z,10.46
2023-03-06T10:23:55.700Z,10.60
2023-03-06T10:26:44.663Z,10.67
2023-03-06T10:30:01.655Z,10.66
2023-03-06T10:32:50.337Z,10.38
2023-03-06T10:35:31.092Z,10.10
2023-03-06T10:38:19.517Z,10.00
2023-03-06T10:41:25.475Z,9.90
2023-03-06T10:44:26.835Z,9.80
2023-03-06T10:47:35.372Z,9.77
2023-03-06T10:50:28.990Z,9.68
2023-03-06T10:53:23.639Z,9.57
2023-03-06T10:56:07.353Z,9.42
2023-03-06T10:59:13.622Z,9.23
2023-03-06T11:01:52.748Z,9.02
2023-03-06T11:04:30.745Z,8.89
2023-03-06T11:07:19.405Z,8.78
2023-03-06T11:10:19.146Z,8.68
2023-03-06T11:13:06.289Z,8.60
2023-03-06T11:15:38.903Z,8.33
2023-03-06T11:18:36.005Z,7.99
2023-03-06T11:21:32.435Z,7.76
2023-03-06T11:24:16.745Z,7.51
2023-03-06T11:26:55.574Z,7.41
2023-03-06T11:29:44.762Z,7.23
2023-03-06T11:32:46.863Z,7.09
2023-03-06T11:35:24.839Z,7.05
2023-03-06T11:38:17.187Z,6.96
2023-03-06T11:41:04.495Z,6.94
2023-03-06T11:43:47.870Z,6.91
2023-03-06T11:46:45.271Z,6.90
2023-03-06T11:49:33.345Z,6.97
2023-03-06T11:52:28.663Z,7.02
2023-03-06T11:55:35.656Z,7.01
2023-03-06T11:58:54.816Z,7.07
2023-03-06T12:02:06.740Z,7.15
2023-03-06T12:05:10.277Z,7.26
2023-03-06T12:08:16.262Z,7.31
2023-03-06T12:14:15.659Z,7.33
2023-03-06T12:17:23.798Z,7.30
2023-03-06T12:20:41.528Z,7.22
2023-03-06T12:23:29.942Z,7.19
2023-03-06T12:26:38.210Z,7.17
2023-03-06T12:29:36.133Z,7.17
2023-03-06T12:32:30.185Z,7.16
2023-03-06T12:35:51.607Z,7.10
2023-03-06T12:39:04.572Z,6.98
2023-03-06T12:42:00.439Z,6.94
2023-03-06T12:45:05.989Z,6.92
2023-03-06T12:47:51.347Z,6.89
2023-03-06T12:50:38.383Z,6.88
2023-03-06T12:53:28.044Z,6.86
2023-03-06T12:56:04.972Z,6.83
2023-03-06T12:58:57.570Z,6.82
2023-03-06T13:02:02.717Z,6.82
2023-03-06T13:05:02.084Z,6.78
2023-03-06T13:08:01.354Z,6.71
2023-03-06T13:11:18.733Z,6.67
2023-03-06T13:13:51.242Z,6.64
2023-03-06T13:16:42.558Z,6.63
2023-03-06T13:19:27.531Z,6.65
2023-03-06T13:22:30.336Z,6.67
2023-03-06T13:25:48.022Z,6.74
2023-03-06T13:28:46.571Z,6.81
2023-03-06T13:32:15.986Z,6.92
2023-03-06T13:35:48.513Z,7.01
2023-03-06T13:39:00.263Z,7.02
2023-03-06T13:42:00.655Z,7.03
2023-03-06T13:44:54.520Z,7.02
2023-03-06T13:48:21.165Z,6.88
2023-03-06T13:51:25.140Z,6.68
2023-03-06T13:54:32.572Z,6.64
2023-03-06T13:57:32.300Z,6.67
2023-03-06T14:00:36.711Z,6.65
2023-03-06T14:04:07.683Z,6.62
2023-03-06T14:07:06.516Z,6.52
2023-03-06T14:09:53.851Z,6.44
2023-03-06T14:12:34.121Z,6.34
2023-03-06T14:15:31.661Z,6.26
2023-03-06T14:18:38.231Z,6.22
2023-03-06T14:21:31.243Z,6.16
2023-03-06T14:24:19.891Z,6.15
2023-03-06T14:27:02.160Z,6.13
2023-03-06T14:30:05.466Z,6.08
2023-03-06T14:32:38.971Z,6.02
2023-03-06T14:35:29.302Z,5.97
2023-03-06T14:38:16.284Z,5.88
2023-03-06T14:41:00.848Z,5.81
2023-03-06T14:43:53.425Z,5.79
2023-03-06T14:46:38.778Z,5.78
2023-03-06T14:49:29.797Z,5.77
2023-03-06T14:52:21.873Z,5.73
2023-03-06T14:55:18.134Z,5.67
2023-03-06T14:57:57.272Z,5.65
2023-03-06T15:00:45.397Z,5.59
2023-03-06T15:03:46.878Z,5.53
2023-03-06T15:06:25.499Z,5.51
2023-03-06T15:09:20.512Z,5.50
2023-03-06T15:12:01.856Z,5.53
2023-03-06T15:15:00.456Z,5.53
2023-03-06T15:17:44.860Z,5.52
2023-03-06T15:20:44.667Z,5.52
2023-03-06T15:23:43.323Z,5.54
2023-03-06T15:26:37.933Z,5.58
2023-03-06T15:29:24.342Z,5.61
2023-03-06T15:32:30.628Z,5.65
2023-03-06T15:35:33.894Z,5.67
2023-03-06T15:39:01.709Z,5.69
2023-03-06T15:41:41.881Z,5.68
2023-03-06T15:44:35.105Z,5.65
2023-03-06T15:47:20.401Z,5.60
2023-03-06T15:50:20.485Z,5.58
2023-03-06T15:53:13.163Z,5.56
2023-03-06T15:56:05.390Z,5.53
2023-03-06T15:58:43.351Z,5.50
2023-03-06T16:01:21.648Z,5.48
2023-03-06T16:04:17.093Z,5.47
2023-03-06T16:07:09.676Z,5.46
2023-03-06T16:09:53.570Z,5.45
2023-03-06T16:12:36.855Z,5.44
2023-03-06T16:15:25.385Z,5.43
2023-03-06T16:18:18.628Z,5.42
2023-03-06T16:21:11.042Z,5.42
2023-03-06T16:23:48.196Z,5.36
2023-03-06T16:26:41.887Z,5.24
2023-03-06T16:29:34.294Z,5.15
2023-03-06T16:32:28.758Z,5.10
2023-03-06T16:35:04.249Z,5.06
2023-03-06T16:38:00.006Z,5.04
2023-03-06T16:40:43.355Z,5.03
2023-03-06T16:43:36.060Z,5.02
2023-03-06T16:46:20.369Z,5.02
2023-03-06T16:49:12.684Z,5.01
2023-03-06T16:52:06.601Z,5.00
2023-03-06T16:54:59.855Z,4.96
2023-03-06T16:57:43.550Z,4.93
2023-03-06T17:00:31.166Z,4.87
2023-03-06T17:03:12.519Z,4.81
2023-03-06T17:06:05.573Z,4.75
2023-03-06T17:08:49.115Z,4.71
2023-03-06T17:11:34.160Z,4.65
2023-03-06T17:14:24.965Z,4.61
2023-03-06T17:17:02.054Z,4.56
2023-03-06T17:19:54.697Z,4.51
2023-03-06T17:22:47.158Z,4.46
2023-03-06T17:25:39.715Z,4.39
2023-03-06T17:28:32.115Z,4.36
2023-03-06T17:31:25.516Z,4.31
2023-03-06T17:34:03.445Z,4.29
2023-03-06T17:36:54.873Z,4.26
2023-03-06T17:39:47.326Z,4.22
2023-03-06T17:42:33.288Z,4.18
2023-03-06T17:45:18.574Z,4.16
2023-03-06T17:47:57.172Z,4.14
2023-03-06T17:50:29.277Z,4.12
2023-03-06T17:53:11.382Z,4.10
2023-03-06T17:55:54.842Z,4.09
2023-03-06T17:58:30.215Z,4.07
2023-03-06T18:01:19.092Z,4.03
2023-03-06T18:04:04.554Z,4.00
2023-03-06T18:06:58.397Z,3.98
2023-03-06T18:09:45.290Z,3.95
2023-03-06T18:12:37.679Z,3.91
2023-03-06T18:15:30.203Z,3.88
2023-03-06T18:18:22.705Z,3.86
2023-03-06T18:21:10.210Z,3.85
2023-03-06T18:24:02.629Z,3.83
2023-03-06T18:26:42.204Z,3.82
2023-03-06T18:29:28.336Z,3.80
2023-03-06T18:32:20.791Z,3.77
2023-03-06T18:35:09.481Z,3.76
2023-03-06T18:37:54.579Z,3.75
2023-03-06T18:40:29.977Z,3.73
2023-03-06T18:43:21.980Z,3.70
2023-03-06T18:46:14.935Z,3.65
2023-03-06T18:49:06.248Z,3.60
2023-03-06T18:51:43.406Z,3.54
2023-03-06T18:54:30.361Z,3.48
2023-03-06T18:57:11.547Z,3.44
2023-03-06T18:59:55.601Z,3.39
2023-03-06T19:02:48.182Z,3.33
2023-03-06T19:05:33.643Z,3.28
2023-03-06T19:08:09.781Z,3.18
2023-03-06T19:10:53.604Z,3.11
2023-03-06T19:13:37.283Z,3.06
2023-03-06T19:16:33.851Z,2.97
2023-03-06T19:19:20.722Z,2.89
2023-03-06T19:22:16.629Z,2.84
2023-03-06T19:25:03.893Z,2.83
2023-03-06T19:27:50.562Z,2.81
2023-03-06T19:30:37.010Z,2.79
2023-03-06T19:33:22.683Z,2.77
2023-03-06T19:36:12.279Z,2.76
2023-03-06T19:39:07.560Z,2.72
2023-03-06T19:42:00.335Z,2.68
2023-03-06T19:44:46.817Z,2.66
2023-03-06T19:47:39.452Z,2.63
2023-03-06T19:50:32.074Z,2.57
2023-03-06T19:53:24.665Z,2.54
2023-03-06T19:56:20.486Z,2.48
2023-03-06T19:59:13.467Z,2.45
2023-03-06T20:01:54.658Z,2.40
2023-03-06T20:06:40.673Z,2.37
2023-03-06T20:07:58.750Z,2.33
2023-03-06T20:10:51.036Z,2.30
2023-03-06T20:13:47.328Z,2.24
2023-03-06T20:16:23.010Z,2.20
2023-03-06T20:19:09.321Z,2.15
2023-03-06T20:21:55.913Z,2.14
2023-03-06T20:24:42.467Z,2.12
2023-03-06T20:27:35.074Z,2.10
2023-03-06T20:30:17.182Z,2.07
2023-03-06T20:33:09.750Z,2.07
2023-03-06T20:36:03.920Z,2.06
2023-03-06T20:38:50.785Z,2.06
2023-03-06T20:41:36.039Z,2.05
2023-03-06T20:44:19.884Z,2.03
2023-03-06T20:47:12.352Z,2.03
2023-03-06T20:49:49.237Z,2.03
2023-03-06T20:52:42.169Z,2.03
2023-03-06T20:55:27.754Z,2.02
2023-03-06T20:58:18.477Z,2.01
2023-03-06T21:01:09.759Z,2.00
2023-03-06T21:04:04.494Z,2.00
2023-03-06T21:06:57.830Z,2.00
2023-03-06T21:09:51.733Z,2.01
2023-03-06T21:12:33.146Z,2.03
2023-03-06T21:15:19.590Z,2.07
2023-03-06T21:18:13.199Z,2.10
2023-03-06T21:21:10.297Z,2.11
2023-03-06T21:24:03.686Z,2.12
2023-03-06T21:26:51.292Z,2.11
2023-03-06T21:29:45.507Z,2.09
2023-03-06T21:32:38.130Z,2.08
2023-03-06T21:35:24.400Z,2.08
2023-03-06T21:38:05.468Z,2.07
2023-03-06T21:40:57.875Z,2.05
2023-03-06T21:43:44.497Z,2.06
2023-03-06T21:46:30.938Z,2.05
2023-03-06T21:49:26.422Z,2.05
2023-03-06T21:52:12.596Z,2.08
2023-03-06T21:55:03.330Z,2.10
2023-03-06T21:57:52.469Z,2.10
2023-03-06T22:00:43.785Z,2.11
2023-03-06T22:03:18.368Z,2.13
2023-03-06T22:06:12.661Z,2.13
2023-03-06T22:09:05.350Z,2.13
2023-03-06T22:11:58.350Z,2.13
2023-03-06T22:14:50.577Z,2.16
2023-03-06T22:17:41.699Z,2.17
2023-03-06T22:20:34.159Z,2.18
2023-03-06T22:23:26.704Z,2.18
2023-03-06T22:26:17.535Z,2.15
2023-03-06T22:29:09.786Z,2.13
2023-03-06T22:32:02.167Z,2.13
2023-03-06T22:34:52.909Z,2.13
2023-03-06T22:37:27.204Z,2.10
2023-03-06T22:40:14.212Z,2.11
2023-03-06T22:42:57.394Z,2.09
2023-03-06T22:45:49.966Z,2.05
2023-03-06T22:48:40.971Z,2.02
2023-03-06T22:51:28.097Z,1.98
2023-03-06T22:54:20.804Z,1.98
2023-03-06T22:57:13.402Z,1.97
2023-03-06T22:59:58.692Z,1.97
2023-03-06T23:02:49.480Z,1.98
2023-03-06T23:05:44.619Z,1.97
2023-03-06T23:08:29.685Z,1.99
2023-03-06T23:11:00.201Z,2.01
2023-03-06T23:13:50.704Z,2.00
2023-03-06T23:16:41.805Z,2.00
2023-03-06T23:19:32.469Z,1.98
2023-03-06T23:22:23.208Z,1.96
2023-03-06T23:25:13.970Z,1.97
2023-03-06T23:28:05.573Z,1.97
2023-03-06T23:30:51.176Z,1.98
2023-03-06T23:33:26.153Z,1.96
2023-03-06T23:36:20.308Z,1.95
2023-03-06T23:39:14.336Z,1.96
2023-03-06T23:41:51.508Z,1.96
2023-03-06T23:44:32.310Z,1.97
2023-03-06T23:47:24.765Z,1.96
2023-03-06T23:50:09.567Z,1.90
2023-03-06T23:52:56.309Z,1.87
2023-03-06T23:55:43.253Z,1.85
2023-03-06T23:58:29.318Z,1.81
